createdAt,value
2023-04-29T00:01:00.676Z,9.94
2023-04-29T00:06:02.971Z,9.97
2023-04-29T00:11:05.429Z,10.00
2023-04-29T00:16:08.811Z,10.02
2023-04-29T00:21:11.516Z,10.02
2023-04-29T00:26:13.360Z,9.99
2023-04-29T00:31:17.528Z,9.92
2023-04-29T00:36:19.617Z,9.85
2023-04-29T00:41:22.228Z,9.82
2023-04-29T00:46:24.308Z,9.80
2023-04-29T00:51:27.212Z,9.76
2023-04-29T00:56:32.366Z,9.75
2023-04-29T01:01:35.957Z,9.78
2023-04-29T01:06:53.189Z,9.82
2023-04-29T01:12:08.510Z,9.86
2023-04-29T01:17:15.718Z,9.90
2023-04-29T01:22:18.950Z,9.92
2023-04-29T01:27:32.177Z,9.93
2023-04-29T01:33:01.508Z,9.93
2023-04-29T01:38:29.684Z,9.93
2023-04-29T01:43:34.541Z,9.93
2023-04-29T01:48:54.819Z,9.90
2023-04-29T01:53:57.427Z,9.86
2023-04-29T01:58:59.746Z,9.83
2023-04-29T02:04:20.673Z,9.86
2023-04-29T02:09:22.708Z,9.91
2023-04-29T02:14:29.298Z,9.96
2023-04-29T02:19:31.784Z,10.01
2023-04-29T02:24:34.385Z,10.05
2023-04-29T02:29:37.196Z,10.07
2023-04-29T02:34:40.083Z,10.08
2023-04-29T02:39:42.062Z,10.08
2023-04-29T02:44:44.570Z,10.09
2023-04-29T02:49:47.170Z,10.08
2023-04-29T02:54:49.463Z,10.09
2023-04-29T02:59:51.614Z,10.09
2023-04-29T03:04:53.947Z,10.06
2023-04-29T03:09:56.387Z,10.03
2023-04-29T03:14:58.832Z,10.00
2023-04-29T03:20:00.852Z,9.99
2023-04-29T03:25:02.921Z,10.00
2023-04-29T03:30:10.445Z,10.01
2023-04-29T03:35:18.063Z,10.02
2023-04-29T03:40:37.569Z,10.03
2023-04-29T03:45:39.817Z,10.01
2023-04-29T03:50:42.344Z,10.02
2023-04-29T03:55:44.970Z,10.04
2023-04-29T04:00:46.893Z,10.07
2023-04-29T04:05:52.721Z,10.10
2023-04-29T04:10:54.591Z,10.14
2023-04-29T04:16:06.558Z,10.18
2023-04-29T04:21:09.987Z,10.23
2023-04-29T04:26:13.128Z,10.29
2023-04-29T04:31:32.443Z,10.36
2023-04-29T04:36:34.676Z,10.46
2023-04-29T04:41:36.655Z,10.54
2023-04-29T04:46:39.209Z,10.63
2023-04-29T04:51:47.486Z,10.70
2023-04-29T04:56:52.302Z,10.77
2023-04-29T05:01:55.527Z,10.82
2023-04-29T05:06:58.714Z,10.86
2023-04-29T05:12:02.988Z,10.90
2023-04-29T05:17:10.411Z,10.94
2023-04-29T05:22:12.855Z,10.97
2023-04-29T05:27:16.609Z,11.00
2023-04-29T05:32:18.801Z,11.03
2023-04-29T05:37:21.005Z,11.08
2023-04-29T05:42:45.700Z,11.15
2023-04-29T05:47:48.497Z,11.23
2023-04-29T05:52:52.044Z,11.34
2023-04-29T05:57:54.754Z,11.45
2023-04-29T06:02:59.189Z,11.53
2023-04-29T06:08:03.997Z,11.59
2023-04-29T06:13:20.637Z,11.66
2023-04-29T06:18:24.365Z,11.76
2023-04-29T06:23:26.755Z,11.86
2023-04-29T06:28:30.133Z,11.97
2023-04-29T06:33:34.120Z,12.09
2023-04-29T06:38:36.644Z,12.22
2023-04-29T06:44:01.990Z,12.34
2023-04-29T06:49:30.349Z,12.50
2023-04-29T06:54:32.394Z,12.70
2023-04-29T06:59:34.867Z,12.91
2023-04-29T07:04:39.396Z,12.99
2023-04-29T07:09:41.681Z,13.16
2023-04-29T07:14:43.588Z,13.44
2023-04-29T07:19:47.369Z,13.74
2023-04-29T07:24:49.379Z,14.04
2023-04-29T07:29:51.692Z,14.34
2023-04-29T07:34:53.967Z,14.63
2023-04-29T07:39:56.555Z,14.88
2023-04-29T07:44:59.120Z,15.06
2023-04-29T07:50:01.660Z,15.11
2023-04-29T07:55:03.960Z,15.06
2023-04-29T08:00:07.672Z,14.76
2023-04-29T08:05:16.815Z,14.69
2023-04-29T08:10:22.889Z,14.88
2023-04-29T08:15:25.016Z,15.13
2023-04-29T08:20:29.077Z,15.44
2023-04-29T08:25:31.013Z,15.85
2023-04-29T08:30:33.676Z,16.30
2023-04-29T08:35:38.821Z,16.59
2023-04-29T08:40:43.780Z,16.70
2023-04-29T08:45:48.843Z,16.65
2023-04-29T08:50:50.957Z,16.51
2023-04-29T08:55:55.475Z,16.73
2023-04-29T09:00:57.644Z,17.13
2023-04-29T09:06:02.109Z,17.45
2023-04-29T09:11:05.496Z,17.35
2023-04-29T09:16:12.045Z,17.08
2023-04-29T09:21:21.141Z,16.82
2023-04-29T09:26:25.124Z,16.70
2023-04-29T09:31:28.208Z,16.58
2023-04-29T09:36:38.584Z,16.45
2023-04-29T09:41:43.696Z,16.19
2023-04-29T09:46:57.504Z,15.90
2023-04-29T09:52:05.249Z,15.76
2023-04-29T09:57:09.237Z,15.59
